Time;durP1;ratioP1;P1;durP2;ratioP2;P2;SDS_P1;SDS_P2;PMS_P1;PMS_P2;Temp;Humidity;BMP_temperature;BMP_pressure;BME280_temperature;BME280_humidity;BME280_pressure;Samples;Min_cycle;Max_cycle;Signal;HPM_P1;HPM_P2
2021/10/06 00:01:24;;;;;;;29.60;8.20;;;;;;;9.49;100.00;100689.16;5021397;28;20026;-62
2021/10/06 00:03:50;;;;;;;27.75;7.78;;;;;;;9.48;100.00;100687.44;5022688;28;20013;-62
2021/10/06 00:06:15;;;;;;;26.27;6.88;;;;;;;9.57;100.00;100694.50;5020313;28;20081;-62
2021/10/06 00:08:40;;;;;;;28.05;7.05;;;;;;;9.56;100.00;100687.47;5019669;28;20033;-64
2021/10/06 00:11:06;;;;;;;29.52;7.55;;;;;;;9.63;100.00;100688.41;5020139;28;20156;-61
2021/10/06 00:13:32;;;;;;;29.25;6.80;;;;;;;9.70;100.00;100698.13;5019928;28;20358;-63
2021/10/06 00:15:57;;;;;;;29.50;7.35;;;;;;;9.69;100.00;100684.00;5019390;28;20041;-61
2021/10/06 00:18:24;;;;;;;25.27;6.65;;;;;;;9.77;100.00;100689.31;5021429;28;20026;-61
2021/10/06 00:20:49;;;;;;;26.58;6.80;;;;;;;9.75;100.00;100693.72;5017216;28;20033;-63
2021/10/06 00:23:15;;;;;;;29.45;7.18;;;;;;;9.66;100.00;100689.28;5021823;28;20033;-62
2021/10/06 00:25:40;;;;;;;27.08;7.05;;;;;;;9.66;100.00;100681.34;5018346;28;20148;-62
2021/10/06 00:28:06;;;;;;;32.97;7.45;;;;;;;9.62;100.00;100686.63;5020627;28;20381;-61
2021/10/06 00:30:31;;;;;;;27.33;6.95;;;;;;;9.62;100.00;100691.91;5018326;28;20164;-62
2021/10/06 00:32:56;;;;;;;26.70;7.18;;;;;;;9.54;100.00;100678.66;5019880;28;20142;-61
2021/10/06 00:35:22;;;;;;;29.35;7.32;;;;;;;9.50;100.00;100677.75;5021452;28;20120;-63
2021/10/06 00:37:47;;;;;;;29.65;7.72;;;;;;;9.53;100.00;100680.41;5018177;28;20026;-62
2021/10/06 00:40:13;;;;;;;26.40;6.72;;;;;;;9.54;100.00;100705.06;5021944;28;20453;-62
2021/10/06 00:42:38;;;;;;;26.73;7.30;;;;;;;9.49;100.00;100690.94;5018814;28;20081;-61
2021/10/06 00:45:05;;;;;;;27.42;7.35;;;;;;;9.49;100.00;100696.22;5018430;28;20053;-63
2021/10/06 00:47:30;;;;;;;27.92;6.93;;;;;;;9.49;100.00;100688.28;5022437;28;20088;-62
2021/10/06 00:49:56;;;;;;;27.13;7.35;;;;;;;9.43;100.00;100691.78;5016933;28;20034;-62
2021/10/06 00:52:21;;;;;;;31.65;8.20;;;;;;;9.41;100.00;100697.03;5016316;28;20029;-62
2021/10/06 00:54:47;;;;;;;28.05;7.53;;;;;;;9.39;100.00;100700.53;5023669;28;20552;-62
2021/10/06 00:57:12;;;;;;;32.30;8.13;;;;;;;9.36;100.00;100709.34;5018778;28;20033;-63
2021/10/06 00:59:38;;;;;;;31.33;7.50;;;;;;;9.40;100.00;100708.47;5018518;28;20026;-62
2021/10/06 01:02:04;;;;;;;33.70;7.70;;;;;;;9.43;100.00;100704.97;5023301;28;20069;-62
2021/10/06 01:04:30;;;;;;;29.70;7.57;;;;;;;9.37;100.00;100705.81;5022032;28;20030;-62
2021/10/06 01:06:56;;;;;;;27.15;7.22;;;;;;;9.49;100.00;100714.69;5023327;28;20034;-62
2021/10/06 01:09:26;;;;;;;29.67;7.40;;;;;;;9.49;100.00;100704.13;5022045;28;20029;-63
2021/10/06 01:11:53;;;;;;;33.42;7.50;;;;;;;9.47;100.00;100719.09;5017202;28;20026;-63
2021/10/06 01:14:19;;;;;;;30.73;7.60;;;;;;;9.44;100.00;100712.03;5023010;28;20081;-63
2021/10/06 01:16:44;;;;;;;30.83;7.45;;;;;;;9.50;100.00;100712.06;5025301;28;20041;-63
2021/10/06 01:19:25;;;;;;;30.10;7.38;;;;;;;9.51;100.00;100716.47;5019237;28;20105;-61
2021/10/06 01:21:52;;;;;;;33.10;7.68;;;;;;;9.57;100.00;100713.00;5023936;28;20026;-63
2021/10/06 01:24:18;;;;;;;29.25;7.63;;;;;;;9.64;100.00;100717.44;5021764;28;20044;-62
2021/10/06 01:26:44;;;;;;;30.88;7.25;;;;;;;9.59;100.00;100721.78;5023899;28;20029;-62
2021/10/06 01:29:10;;;;;;;28.00;7.00;;;;;;;9.59;100.00;100709.47;5019888;28;20044;-63
2021/10/06 01:31:36;;;;;;;27.20;7.45;;;;;;;9.64;100.00;100724.44;5021391;28;20052;-62
2021/10/06 01:34:01;;;;;;;28.23;6.93;;;;;;;9.61;100.00;100730.63;5024499;28;20048;-62
2021/10/06 01:36:26;;;;;;;28.88;7.40;;;;;;;9.62;100.00;100727.06;5018468;28;20033;-62
2021/10/06 01:38:52;;;;;;;27.08;6.47;;;;;;;9.72;100.00;100731.53;5024262;28;20034;-64
2021/10/06 01:41:17;;;;;;;32.55;7.53;;;;;;;9.67;100.00;100732.38;5018491;28;20369;-62
2021/10/06 01:43:42;;;;;;;29.90;7.43;;;;;;;9.73;100.00;100737.72;5021393;28;20018;-62
2021/10/06 01:46:08;;;;;;;28.70;6.85;;;;;;;9.70;100.00;100719.22;5019930;28;20033;-62
2021/10/06 01:48:33;;;;;;;28.60;6.90;;;;;;;9.73;100.00;100733.31;5018305;28;20061;-62
2021/10/06 01:50:58;;;;;;;28.02;7.10;;;;;;;9.70;100.00;100728.03;5018405;28;20481;-61
2021/10/06 01:53:35;;;;;;;28.58;6.82;;;;;;;9.66;100.00;100736.78;5017150;28;20030;-64
2021/10/06 01:56:00;;;;;;;29.30;6.55;;;;;;;9.70;100.00;100743.00;5018761;28;20030;-64
2021/10/06 01:58:26;;;;;;;25.00;6.07;;;;;;;9.75;100.00;100735.97;5020320;28;20516;-62
2021/10/06 02:00:51;;;;;;;30.00;7.00;;;;;;;9.74;100.00;100737.72;5020367;28;20033;-61
2021/10/06 02:03:17;;;;;;;29.27;6.70;;;;;;;9.75;100.00;100747.38;5018878;28;20045;-63
2021/10/06 02:05:43;;;;;;;33.13;7.10;;;;;;;9.74;100.00;100740.38;5018307;28;20100;-62
2021/10/06 02:08:09;;;;;;;27.95;6.95;;;;;;;9.73;100.00;100753.56;5019145;28;20088;-61
2021/10/06 02:10:35;;;;;;;28.58;6.38;;;;;;;9.69;100.00;100746.50;5017669;28;20026;-62
2021/10/06 02:13:00;;;;;;;26.55;6.32;;;;;;;9.79;100.00;100752.72;5019191;28;20072;-61
2021/10/06 02:15:26;;;;;;;26.42;6.18;;;;;;;9.66;100.00;100741.19;5018014;28;20113;-62
2021/10/06 02:17:52;;;;;;;32.22;7.00;;;;;;;9.57;100.00;100736.75;5019266;28;20377;-61
2021/10/06 02:20:18;;;;;;;27.95;6.55;;;;;;;9.47;100.00;100733.16;5018774;28;20029;-62
2021/10/06 02:22:44;;;;;;;28.77;6.55;;;;;;;9.53;100.00;100751.66;5017139;28;20387;-63
2021/10/06 02:25:10;;;;;;;28.35;6.72;;;;;;;9.48;100.00;100726.09;5016437;28;20036;-64
2021/10/06 02:27:35;;;;;;;26.00;6.20;;;;;;;9.60;100.00;100732.34;5017330;28;20030;-62
2021/10/06 02:30:01;;;;;;;29.48;6.50;;;;;;;9.71;100.00;100742.09;5016109;28;20036;-62
2021/10/06 02:32:26;;;;;;;25.95;5.78;;;;;;;9.81;100.00;100724.56;5017115;28;20073;-62
2021/10/06 02:34:52;;;;;;;25.58;5.90;;;;;;;9.85;100.00;100719.28;5017700;28;20030;-61
2021/10/06 02:37:17;;;;;;;26.90;6.35;;;;;;;9.89;100.00;100707.00;5018267;28;20042;-66
2021/10/06 02:39:42;;;;;;;29.92;6.10;;;;;;;9.95;100.00;100712.31;5019798;28;20041;-63
2021/10/06 02:42:08;;;;;;;26.55;5.63;;;;;;;9.95;98.92;100715.81;5019020;28;20018;-62
2021/10/06 02:44:33;;;;;;;27.58;5.68;;;;;;;9.91;99.64;100716.69;5020590;28;20034;-62
2021/10/06 02:47:01;;;;;;;26.25;5.78;;;;;;;9.91;100.00;100721.97;5021421;28;20077;-62
2021/10/06 02:49:26;;;;;;;26.25;5.72;;;;;;;9.97;97.91;100723.75;5018028;28;20030;-62
2021/10/06 02:51:51;;;;;;;26.05;6.00;;;;;;;9.95;98.89;100721.09;5020420;28;20030;-63
2021/10/06 02:54:16;;;;;;;26.17;5.95;;;;;;;9.95;99.22;100717.59;5021810;28;20686;-63
2021/10/06 02:56:42;;;;;;;26.65;6.15;;;;;;;9.98;97.42;100727.28;5017705;28;20024;-61
2021/10/06 02:59:07;;;;;;;26.45;5.68;;;;;;;9.92;98.39;100722.88;5025808;28;20472;-61
2021/10/06 03:01:32;;;;;;;24.90;5.65;;;;;;;10.02;96.18;100715.84;5021556;28;20036;-62
2021/10/06 03:03:58;;;;;;;26.30;5.53;;;;;;;9.97;97.17;100736.97;5020870;28;20091;-64
2021/10/06 03:06:23;;;;;;;25.77;5.53;;;;;;;10.03;95.40;100722.91;5022012;28;20061;-63
2021/10/06 03:08:48;;;;;;;23.83;5.40;;;;;;;9.98;96.65;100724.66;5016632;28;20050;-62
2021/10/06 03:11:14;;;;;;;25.63;5.82;;;;;;;9.95;97.31;100728.16;5020629;28;20056;-62
2021/10/06 03:13:39;;;;;;;25.85;5.35;;;;;;;9.93;96.67;100738.72;5017387;28;20512;-63
2021/10/06 03:16:04;;;;;;;26.05;5.60;;;;;;;9.99;96.87;100729.94;5024509;28;20026;-62
2021/10/06 03:18:30;;;;;;;24.38;5.75;;;;;;;9.93;98.09;100729.88;5026161;28;20044;-63
2021/10/06 03:20:55;;;;;;;25.30;5.32;;;;;;;9.82;99.26;100726.34;5015746;28;20038;-65
2021/10/06 03:23:22;;;;;;;28.58;6.32;;;;;;;9.67;100.00;100730.66;5016058;28;20033;-62
2021/10/06 03:25:47;;;;;;;26.23;5.50;;;;;;;9.70;100.00;100738.56;5016127;28;20111;-62
2021/10/06 03:28:13;;;;;;;23.75;5.30;;;;;;;9.60;100.00;100737.63;5020341;28;20464;-62
2021/10/06 03:30:39;;;;;;;28.50;5.93;;;;;;;9.58;100.00;100749.03;5027125;28;20048;-62
2021/10/06 03:33:05;;;;;;;25.75;5.90;;;;;;;9.55;100.00;100741.09;5025514;28;20441;-64
2021/10/06 03:35:31;;;;;;;29.30;6.50;;;;;;;9.41;100.00;100741.91;5025872;28;20105;-62
2021/10/06 03:37:56;;;;;;;25.77;6.20;;;;;;;9.41;100.00;100752.44;5026313;28;20032;-62
2021/10/06 03:40:22;;;;;;;27.52;6.20;;;;;;;9.27;100.00;100754.09;5024747;28;20033;-62
2021/10/06 03:42:48;;;;;;;30.33;6.30;;;;;;;9.20;100.00;100774.28;5027609;28;20079;-64
2021/10/06 03:45:14;;;;;;;25.48;6.75;;;;;;;9.20;100.00;100762.81;5019998;28;20133;-63
2021/10/06 03:47:40;;;;;;;29.73;6.70;;;;;;;9.07;100.00;100762.72;5015395;28;20124;-63
2021/10/06 03:50:07;;;;;;;28.02;6.32;;;;;;;9.06;100.00;100771.50;5015818;28;20060;-62
2021/10/06 03:52:32;;;;;;;27.38;5.95;;;;;;;9.10;100.00;100764.50;5025727;28;20052;-62
2021/10/06 03:54:58;;;;;;;28.00;6.85;;;;;;;8.99;100.00;100764.41;5025802;28;20472;-76
2021/10/06 03:57:23;;;;;;;30.17;7.05;;;;;;;8.95;100.00;100767.00;5015842;28;20034;-75
2021/10/06 03:59:48;;;;;;;29.05;6.45;;;;;;;9.03;100.00;100768.84;5015431;28;20018;-76
2021/10/06 04:02:14;;;;;;;27.52;6.68;;;;;;;9.01;100.00;100777.59;5015381;28;20022;-76
2021/10/06 04:04:39;;;;;;;28.67;6.57;;;;;;;8.93;100.00;100774.88;5015905;28;20046;-75
2021/10/06 04:07:05;;;;;;;25.08;6.32;;;;;;;8.90;100.00;100773.09;5025953;28;20049;-74
2021/10/06 04:09:30;;;;;;;31.23;6.60;;;;;;;8.89;100.00;100786.25;5025441;28;20048;-76
2021/10/06 04:11:55;;;;;;;27.13;6.15;;;;;;;8.95;100.00;100767.88;5015580;28;20026;-75
2021/10/06 04:14:21;;;;;;;29.67;6.00;;;;;;;8.86;100.00;100779.19;5015408;28;20026;-75
2021/10/06 04:16:46;;;;;;;28.08;6.50;;;;;;;8.88;100.00;100782.75;5014339;28;20037;-75
2021/10/06 04:19:11;;;;;;;26.40;6.28;;;;;;;8.88;100.00;100798.56;5015227;28;20377;-74
2021/10/06 04:21:37;;;;;;;30.95;7.10;;;;;;;8.83;100.00;100780.94;5025888;28;20112;-75
2021/10/06 04:24:02;;;;;;;29.42;7.20;;;;;;;8.80;100.00;100773.00;5024888;28;20025;-75
2021/10/06 04:26:27;;;;;;;31.65;7.53;;;;;;;8.84;100.00;100795.88;5024663;28;20033;-74
2021/10/06 04:28:53;;;;;;;29.83;7.03;;;;;;;8.78;100.00;100798.44;5026297;28;20029;-75
2021/10/06 04:31:19;;;;;;;34.78;7.53;;;;;;;8.69;100.00;100797.50;5023540;28;20029;-75
2021/10/06 04:33:47;;;;;;;33.67;7.95;;;;;;;8.70;100.00;100798.38;5019334;28;20051;-62
2021/10/06 04:36:14;;;;;;;31.75;8.80;;;;;;;8.67;100.00;100803.59;5014737;28;20030;-62
2021/10/06 04:38:39;;;;;;;36.28;8.73;;;;;;;8.73;100.00;100794.00;5015009;28;20079;-62
2021/10/06 04:41:05;;;;;;;32.83;8.02;;;;;;;8.66;100.00;100809.72;5014682;28;20101;-64
2021/10/06 04:43:31;;;;;;;34.40;8.55;;;;;;;8.63;100.00;100804.44;5015008;28;20372;-62
2021/10/06 04:45:56;;;;;;;33.42;9.00;;;;;;;8.63;100.00;100807.06;5023995;28;20050;-65
2021/10/06 04:48:21;;;;;;;32.22;8.32;;;;;;;8.57;100.00;100810.50;5022012;28;20018;-63
2021/10/06 04:50:46;;;;;;;37.47;9.07;;;;;;;8.58;100.00;100808.75;5023477;28;20109;-63
2021/10/06 04:53:12;;;;;;;32.90;8.60;;;;;;;8.54;100.00;100810.47;5014167;28;20022;-64
2021/10/06 04:55:38;;;;;;;29.75;7.32;;;;;;;8.58;100.00;100800.84;5013821;28;20030;-63
2021/10/06 04:58:04;;;;;;;35.72;9.30;;;;;;;8.55;100.00;100807.84;5023266;28;20033;-63
2021/10/06 05:00:30;;;;;;;42.70;9.15;;;;;;;8.54;100.00;100799.94;5026211;28;20025;-64
2021/10/06 05:02:55;;;;;;;37.13;10.45;;;;;;;8.53;100.00;100800.78;5014334;28;20428;-64
2021/10/06 05:05:20;;;;;;;36.65;9.02;;;;;;;8.53;100.00;100806.06;5014350;28;20473;-64
2021/10/06 05:07:46;;;;;;;35.80;8.65;;;;;;;8.52;100.00;100815.72;5023502;28;20104;-64
2021/10/06 05:10:11;;;;;;;33.58;9.05;;;;;;;8.51;100.00;100806.03;5023837;28;20026;-65
2021/10/06 05:12:37;;;;;;;33.85;9.00;;;;;;;8.53;100.00;100813.97;5014451;28;20034;-63
2021/10/06 05:15:03;;;;;;;33.63;8.68;;;;;;;8.52;100.00;100825.41;5014281;28;20026;-64
2021/10/06 05:17:28;;;;;;;34.65;8.02;;;;;;;8.53;100.00;100821.88;5014274;28;20436;-65
2021/10/06 05:19:54;;;;;;;35.20;8.65;;;;;;;8.55;100.00;100822.78;5018638;28;20104;-63
2021/10/06 05:22:19;;;;;;;31.60;8.73;;;;;;;8.53;100.00;100824.50;5024831;28;20484;-62
2021/10/06 05:24:44;;;;;;;30.02;8.13;;;;;;;8.48;100.00;100803.38;5023259;28;20022;-63
2021/10/06 05:27:10;;;;;;;31.50;7.90;;;;;;;8.47;100.00;100813.91;5014014;28;20428;-64
2021/10/06 05:29:35;;;;;;;38.20;8.85;;;;;;;8.49;100.00;100809.53;5023112;28;20129;-63
2021/10/06 05:32:04;;;;;;;34.13;8.50;;;;;;;8.50;100.00;100820.09;5025147;28;20456;-65
2021/10/06 05:34:32;;;;;;;29.95;7.72;;;;;;;8.47;100.00;100819.16;5022337;28;20104;-63
2021/10/06 05:36:58;;;;;;;33.25;8.52;;;;;;;8.45;100.00;100826.19;5024991;28;20172;-63
2021/10/06 05:39:25;;;;;;;34.50;8.18;;;;;;;8.51;100.00;100823.63;5021859;28;20127;-63
2021/10/06 05:41:50;;;;;;;32.13;7.88;;;;;;;8.40;100.00;100822.56;5013943;28;20373;-65
2021/10/06 05:44:16;;;;;;;33.53;8.38;;;;;;;8.47;100.00;100811.25;5018299;28;20021;-64
2021/10/06 05:46:41;;;;;;;31.45;8.02;;;;;;;8.54;100.00;100821.00;5022707;28;20041;-65
2021/10/06 05:49:07;;;;;;;34.83;8.05;;;;;;;8.54;100.00;100808.72;5017321;28;20109;-65
2021/10/06 05:51:33;;;;;;;35.08;9.15;;;;;;;8.52;100.00;100833.28;5024123;28;20028;-65
2021/10/06 05:53:58;;;;;;;32.97;8.90;;;;;;;8.49;100.00;100826.22;5018719;28;20034;-65
2021/10/06 05:56:23;;;;;;;30.88;8.10;;;;;;;8.53;100.00;100817.50;5023993;28;20025;-66
2021/10/06 05:58:49;;;;;;;33.88;8.38;;;;;;;8.45;100.00;100834.09;5020253;28;20072;-66
2021/10/06 06:01:14;;;;;;;31.38;9.18;;;;;;;8.44;100.00;100829.63;5017982;28;20022;-65
2021/10/06 06:03:40;;;;;;;35.63;9.85;;;;;;;8.43;100.00;100834.03;5022438;28;20025;-65
2021/10/06 06:06:05;;;;;;;37.17;9.68;;;;;;;8.40;100.00;100831.34;5020255;28;20115;-66
2021/10/06 06:08:31;;;;;;;35.88;10.00;;;;;;;8.43;100.00;100833.13;5019638;28;20030;-66
2021/10/06 06:10:57;;;;;;;36.13;10.23;;;;;;;8.42;100.00;100836.63;5017966;28;20074;-66
2021/10/06 06:13:22;;;;;;;35.08;10.85;;;;;;;8.37;100.00;100824.28;5020006;28;20115;-65
2021/10/06 06:15:52;;;;;;;37.00;10.70;;;;;;;8.41;100.00;100824.34;5019176;28;20022;-65
2021/10/06 06:18:17;;;;;;;35.55;11.63;;;;;;;8.40;100.00;100843.63;5023093;28;20116;-66
2021/10/06 06:20:42;;;;;;;36.67;10.68;;;;;;;8.43;100.00;100838.41;5021039;28;20152;-66
2021/10/06 06:23:08;;;;;;;37.35;10.85;;;;;;;8.41;100.00;100848.03;5016747;28;20049;-65
2021/10/06 06:25:33;;;;;;;33.80;11.52;;;;;;;8.40;100.00;100846.25;5020080;28;20544;-65
2021/10/06 06:27:59;;;;;;;41.72;13.35;;;;;;;8.43;100.00;100830.50;5016836;28;20026;-65
2021/10/06 06:30:24;;;;;;;37.25;11.23;;;;;;;8.37;100.00;100857.63;5019738;28;20350;-65
2021/10/06 06:32:51;;;;;;;41.42;13.40;;;;;;;8.37;100.00;100857.63;5017963;28;20492;-67
2021/10/06 06:35:17;;;;;;;38.33;12.82;;;;;;;8.40;100.00;100856.78;5019543;28;20026;-67
2021/10/06 06:37:42;;;;;;;39.83;12.85;;;;;;;8.34;100.00;100869.03;5018619;28;20092;-65
2021/10/06 06:40:09;;;;;;;43.63;14.38;;;;;;;8.38;100.00;100865.56;5015873;28;20038;-66
2021/10/06 06:42:35;;;;;;;42.15;14.40;;;;;;;8.34;100.00;100861.13;5016724;28;20034;-66
2021/10/06 06:45:00;;;;;;;39.35;13.55;;;;;;;8.30;100.00;100856.69;5018439;28;20026;-65
2021/10/06 06:47:26;;;;;;;43.75;15.38;;;;;;;8.39;100.00;100855.94;5013620;28;20073;-66
2021/10/06 06:49:55;;;;;;;45.50;14.95;;;;;;;8.41;100.00;100858.59;5019767;28;20125;-68
2021/10/06 06:52:21;;;;;;;48.13;16.23;;;;;;;8.37;100.00;100861.19;5020807;28;20425;-67
2021/10/06 06:54:46;;;;;;;46.17;16.23;;;;;;;8.42;100.00;100862.97;5024075;28;20049;-67
2021/10/06 06:57:12;;;;;;;48.47;16.55;;;;;;;8.42;100.00;100868.22;5019574;28;20030;-66
2021/10/06 06:59:37;;;;;;;41.78;15.70;;;;;;;8.45;100.00;100876.25;5022337;28;20033;-68
2021/10/06 07:02:03;;;;;;;46.92;16.48;;;;;;;8.50;100.00;100864.00;5020017;28;20026;-67
2021/10/06 07:04:28;;;;;;;43.47;16.30;;;;;;;8.52;100.00;100865.78;5027249;28;20336;-67
2021/10/06 07:06:56;;;;;;;40.80;15.95;;;;;;;8.51;100.00;100886.84;5022708;28;20507;-66
2021/10/06 07:09:25;;;;;;;41.53;14.88;;;;;;;8.54;100.00;100881.63;5016947;28;20026;-66
2021/10/06 07:11:52;;;;;;;41.22;15.05;;;;;;;8.53;100.00;100885.09;5017518;28;20029;-67
2021/10/06 07:14:18;;;;;;;43.47;15.40;;;;;;;8.53;100.00;100871.94;5018187;28;20052;-66
2021/10/06 07:16:43;;;;;;;43.78;16.52;;;;;;;8.53;100.00;100885.09;5025898;28;20428;-67
2021/10/06 07:19:09;;;;;;;44.78;16.70;;;;;;;8.52;100.00;100889.50;5025114;28;20104;-70
2021/10/06 07:21:34;;;;;;;42.17;16.25;;;;;;;8.53;100.00;100898.28;5019496;28;20026;-65
2021/10/06 07:23:59;;;;;;;44.92;17.48;;;;;;;8.50;100.00;100888.59;5023518;28;20037;-70
2021/10/06 07:26:25;;;;;;;44.90;16.80;;;;;;;8.55;100.00;100899.22;5020513;28;20048;-68
2021/10/06 07:28:50;;;;;;;40.70;16.33;;;;;;;8.60;100.00;100897.50;5019605;28;20366;-67
2021/10/06 07:31:16;;;;;;;46.90;18.15;;;;;;;8.56;100.00;100903.59;5021026;28;20052;-69
2021/10/06 07:33:44;;;;;;;47.22;17.98;;;;;;;8.57;100.00;100896.59;5026852;28;20088;-69
2021/10/06 07:36:09;;;;;;;45.30;18.35;;;;;;;8.57;100.00;100896.59;5024426;28;20087;-70
2021/10/06 07:38:36;;;;;;;41.70;17.23;;;;;;;8.63;100.00;100901.94;5023590;28;20022;-70
2021/10/06 07:41:02;;;;;;;42.58;17.02;;;;;;;8.63;100.00;100904.56;5021342;28;20037;-68
2021/10/06 07:43:27;;;;;;;45.67;17.70;;;;;;;8.64;100.00;100899.31;5023226;28;20034;-64
2021/10/06 07:45:53;;;;;;;42.45;17.02;;;;;;;8.67;100.00;100919.56;5022824;28;20029;-65
2021/10/06 07:48:18;;;;;;;40.58;16.23;;;;;;;8.68;100.00;100916.94;5021999;28;20472;-65
2021/10/06 07:50:44;;;;;;;41.00;16.83;;;;;;;8.73;100.00;100930.19;5021852;28;20037;-65
2021/10/06 07:53:10;;;;;;;40.35;16.42;;;;;;;8.68;100.00;100935.41;5019572;28;20095;-65
2021/10/06 07:55:35;;;;;;;38.30;16.35;;;;;;;8.72;100.00;100926.66;5026841;28;20033;-65
2021/10/06 07:58:01;;;;;;;40.10;15.88;;;;;;;8.75;100.00;100925.81;5019465;28;20432;-65
2021/10/06 08:00:26;;;;;;;37.17;15.70;;;;;;;8.76;100.00;100924.94;5020960;28;20041;-65
2021/10/06 08:02:52;;;;;;;41.65;15.77;;;;;;;8.80;100.00;100931.16;5025818;28;20076;-65
2021/10/06 08:05:17;;;;;;;35.92;14.48;;;;;;;8.85;100.00;100934.72;5019954;28;20392;-69
2021/10/06 08:07:42;;;;;;;39.13;15.68;;;;;;;8.85;100.00;100940.00;5026350;28;20469;-65
2021/10/06 08:10:08;;;;;;;38.25;15.48;;;;;;;8.85;100.00;100946.16;5019746;28;20030;-65
2021/10/06 08:12:34;;;;;;;40.05;16.40;;;;;;;8.88;100.00;100943.56;5020757;28;20066;-65
2021/10/06 08:14:59;;;;;;;37.72;15.90;;;;;;;8.89;100.00;100952.34;5017384;28;20030;-66
2021/10/06 08:17:25;;;;;;;34.38;15.20;;;;;;;8.88;100.00;100956.75;5021897;28;20040;-65
2021/10/06 08:19:50;;;;;;;38.67;15.43;;;;;;;8.87;100.00;100964.66;5019253;28;20022;-67
2021/10/06 08:22:17;;;;;;;38.00;16.00;;;;;;;8.92;100.00;100973.47;5017875;28;20026;-70
2021/10/06 08:24:43;;;;;;;42.38;17.08;;;;;;;8.94;100.00;100976.13;5022859;28;20025;-69
2021/10/06 08:27:11;;;;;;;37.33;16.23;;;;;;;8.92;100.00;100978.75;5018458;28;20132;-67
2021/10/06 08:29:36;;;;;;;40.72;17.38;;;;;;;9.01;100.00;100984.19;5020920;28;20045;-67
2021/10/06 08:32:02;;;;;;;39.08;17.52;;;;;;;8.99;100.00;100993.78;5014734;28;20037;-69
2021/10/06 08:34:27;;;;;;;40.30;17.35;;;;;;;9.02;100.00;100993.81;5016310;28;20183;-67
2021/10/06 08:36:52;;;;;;;40.92;17.17;;;;;;;9.07;100.00;101002.69;5018463;28;20029;-65
2021/10/06 08:39:18;;;;;;;41.13;17.88;;;;;;;9.22;100.00;100993.22;5019644;28;20026;-65
2021/10/06 08:41:43;;;;;;;40.65;18.42;;;;;;;9.26;100.00;101010.81;5020643;28;20025;-66
2021/10/06 08:44:09;;;;;;;42.10;19.33;;;;;;;9.23;100.00;101016.97;5019312;28;20026;-65
2021/10/06 08:46:34;;;;;;;39.33;17.67;;;;;;;9.25;100.00;101014.34;4983736;28;1084354;-65
2021/10/06 08:49:00;;;;;;;46.65;18.67;;;;;;;9.23;100.00;101018.69;5020348;28;20425;-65
2021/10/06 08:51:26;;;;;;;39.92;16.85;;;;;;;9.22;100.00;101009.91;5020448;28;20022;-66
2021/10/06 08:53:52;;;;;;;40.17;17.52;;;;;;;9.22;100.00;101024.88;5020688;28;20030;-70
2021/10/06 08:56:20;;;;;;;41.20;17.73;;;;;;;9.27;100.00;101027.56;5018409;28;20025;-73
2021/10/06 08:58:46;;;;;;;42.83;18.80;;;;;;;9.25;100.00;101027.53;5021050;28;20033;-70
2021/10/06 09:01:26;;;;;;;46.17;19.60;;;;;;;9.34;100.00;101032.91;5018455;28;20434;-67
2021/10/06 09:04:05;;;;;;;44.70;19.50;;;;;;;9.40;100.00;101040.03;5017778;28;20539;-72
2021/10/06 09:06:39;;;;;;;40.55;18.50;;;;;;;9.46;100.00;101049.78;5019142;28;20491;-67
2021/10/06 09:09:24;;;;;;;44.05;19.73;;;;;;;9.32;100.00;101053.13;5017262;28;20025;-73
2021/10/06 09:11:53;;;;;;;47.95;20.40;;;;;;;9.38;100.00;101047.94;5016613;28;20472;-74
2021/10/06 09:14:20;;;;;;;46.72;20.08;;;;;;;9.38;100.00;101053.22;5017731;28;20029;-67
2021/10/06 09:17:02;;;;;;;49.00;21.95;;;;;;;9.36;100.00;101057.59;5018867;28;20054;-65
2021/10/06 09:19:54;;;;;;;45.97;21.35;;;;;;;9.37;100.00;101050.56;5019128;28;20033;-66
2021/10/06 09:22:22;;;;;;;46.53;20.90;;;;;;;9.43;100.00;101059.41;5012081;28;20033;-66
2021/10/06 09:25:03;;;;;;;48.13;21.25;;;;;;;9.47;100.00;101060.34;5011338;28;20748;-70
2021/10/06 09:27:33;;;;;;;43.88;19.77;;;;;;;9.51;100.00;101069.19;5010391;28;20038;-66
2021/10/06 09:30:02;;;;;;;44.78;20.52;;;;;;;9.50;100.00;101085.91;5010847;28;20041;-66
2021/10/06 09:32:37;;;;;;;46.38;20.73;;;;;;;9.49;100.00;101082.34;5009923;28;20038;-66
2021/10/06 09:35:08;;;;;;;45.85;21.10;;;;;;;9.52;100.00;101092.06;5011206;28;20546;-65
2021/10/06 09:37:36;;;;;;;45.45;21.55;;;;;;;9.52;100.00;101089.44;5010127;28;20038;-65
2021/10/06 09:40:03;;;;;;;52.47;20.98;;;;;;;9.55;100.00;101092.09;5011822;28;20030;-65
2021/10/06 09:42:29;;;;;;;49.95;22.92;;;;;;;9.53;100.00;101088.56;5011201;28;20061;-66
2021/10/06 09:44:56;;;;;;;54.55;21.92;;;;;;;9.57;100.00;101095.66;5011532;28;20116;-65
2021/10/06 09:47:21;;;;;;;54.00;21.80;;;;;;;9.60;100.00;101099.22;5009423;28;20528;-65
2021/10/06 09:49:53;;;;;;;52.88;23.00;;;;;;;9.61;100.00;101097.47;5009509;28;20040;-65
2021/10/06 09:52:31;;;;;;;55.22;23.98;;;;;;;9.62;100.00;101087.81;5013090;28;20484;-65
2021/10/06 09:55:00;;;;;;;53.70;22.63;;;;;;;9.65;100.00;101095.75;5010081;28;20034;-65
2021/10/06 09:57:34;;;;;;;55.22;21.63;;;;;;;9.67;100.00;101101.91;5010009;28;20029;-65
2021/10/06 10:00:21;;;;;;;52.45;21.35;;;;;;;9.66;100.00;101106.31;5018024;28;20049;-65
2021/10/06 10:02:47;;;;;;;56.42;22.95;;;;;;;9.69;100.00;101119.56;5022281;28;20024;-65
2021/10/06 10:05:15;;;;;;;53.83;22.30;;;;;;;9.73;100.00;101120.50;5018582;28;20120;-65
2021/10/06 10:07:41;;;;;;;52.75;22.33;;;;;;;9.74;100.00;101122.25;5020297;28;20041;-65
2021/10/06 10:10:09;;;;;;;58.80;23.23;;;;;;;9.79;100.00;101124.97;5017015;28;20030;-65
2021/10/06 10:12:35;;;;;;;58.17;23.67;;;;;;;9.87;100.00;101131.22;5017982;28;20029;-65
2021/10/06 10:15:02;;;;;;;60.03;25.38;;;;;;;9.95;100.00;101130.44;5016796;28;20022;-65
2021/10/06 10:17:28;;;;;;;64.10;26.73;;;;;;;10.01;100.00;101126.97;5020768;28;20053;-65
2021/10/06 10:20:20;;;;;;;62.97;26.30;;;;;;;10.10;100.00;101132.34;5015505;28;20026;-65
2021/10/06 10:23:01;;;;;;;61.53;26.50;;;;;;;10.11;100.00;101125.34;5015458;28;20040;-65
2021/10/06 10:25:28;;;;;;;59.15;24.52;;;;;;;10.13;100.00;101131.50;5017558;28;20030;-65
2021/10/06 10:27:55;;;;;;;51.42;22.67;;;;;;;10.10;100.00;101132.34;5019089;28;20088;-65
2021/10/06 10:30:20;;;;;;;56.58;23.60;;;;;;;10.11;100.00;101135.91;5015748;28;20480;-65
2021/10/06 10:32:46;;;;;;;59.47;25.50;;;;;;;10.17;100.00;101141.25;5019861;28;20076;-66
2021/10/06 10:35:17;;;;;;;55.17;21.42;;;;;;;10.25;100.00;101136.94;5015738;28;20386;-66
2021/10/06 10:37:46;;;;;;;60.28;22.80;;;;;;;10.36;100.00;101141.47;5019189;28;20109;-66
2021/10/06 10:40:40;;;;;;;48.95;19.90;;;;;;;10.50;100.00;101149.53;5016269;28;20122;-67
2021/10/06 10:43:07;;;;;;;52.80;20.95;;;;;;;10.73;100.00;101148.00;5019289;28;20026;-66
2021/10/06 10:45:37;;;;;;;51.83;20.73;;;;;;;10.78;100.00;101140.97;5018212;28;20028;-66
2021/10/06 10:48:13;;;;;;;50.25;19.83;;;;;;;10.80;100.00;101147.19;5019024;28;20045;-66
2021/10/06 10:50:44;;;;;;;49.70;18.40;;;;;;;10.74;100.00;101162.97;5018344;28;20018;-66
2021/10/06 10:53:14;;;;;;;44.10;18.27;;;;;;;10.81;100.00;101166.56;5020903;28;20096;-66
2021/10/06 10:55:54;;;;;;;50.35;18.40;;;;;;;10.80;100.00;101163.03;5018661;28;20544;-66
2021/10/06 10:58:28;;;;;;;47.85;17.50;;;;;;;10.97;100.00;101163.16;5021608;28;20041;-66
2021/10/06 11:00:53;;;;;;;45.42;16.70;;;;;;;11.20;100.00;101170.38;5016253;28;20105;-66
2021/10/06 11:03:18;;;;;;;44.30;16.38;;;;;;;11.23;100.00;101174.81;5021361;28;20097;-66
2021/10/06 11:05:46;;;;;;;36.50;12.40;;;;;;;11.16;100.00;101173.88;5023252;28;20392;-66
2021/10/06 11:08:32;;;;;;;43.28;13.80;;;;;;;11.22;100.00;101187.16;5023637;28;20057;-66
2021/10/06 11:11:09;;;;;;;41.55;12.77;;;;;;;11.28;100.00;101194.25;5016550;28;20030;-66
2021/10/06 11:13:38;;;;;;;41.28;13.73;;;;;;;11.32;100.00;101190.75;5018391;28;20547;-65